sensor_id;sensor_type;location;lat;lon;timestamp;pressure;altitude;pressure_sealevel;temperature;humidity
54648;BME280;40543;53.584;9.858;2023-04-09T00:01:05;54391.28;;;-144.59;100.00
54648;BME280;40543;53.584;9.858;2023-04-09T00:03:31;54401.41;;;-144.59;100.00
54648;BME280;40543;53.584;9.858;2023-04-09T00:05:56;54395.34;;;-144.59;100.00
54648;BME280;40543;53.584;9.858;2023-04-09T00:08:22;54338.72;;;-144.59;100.00
54648;BME280;40543;53.584;9.858;2023-04-09T00:10:51;54334.69;;;-144.59;100.00
54648;BME280;40543;53.584;9.858;2023-04-09T00:13:17;54433.75;;;-144.59;100.00
54648;BME280;40543;53.584;9.858;2023-04-09T00:15:43;54346.81;;;-144.59;100.00
54648;BME280;40543;53.584;9.858;2023-04-09T00:18:09;54358.94;;;-144.59;100.00
54648;BME280;40543;53.584;9.858;2023-04-09T00:20:34;54362.97;;;-144.59;100.00
54648;BME280;40543;53.584;9.858;2023-04-09T00:23:00;54365.00;;;-144.59;100.00
54648;BME280;40543;53.584;9.858;2023-04-09T00:25:25;54369.03;;;-144.59;100.00
54648;BME280;40543;53.584;9.858;2023-04-09T00:27:50;54369.03;;;-144.59;100.00
54648;BME280;40543;53.584;9.858;2023-04-09T00:30:16;54385.22;;;-144.59;100.00
54648;BME280;40543;53.584;9.858;2023-04-09T00:32:41;54360.97;;;-144.59;100.00
54648;BME280;40543;53.584;9.858;2023-04-09T00:35:07;54367.03;;;-144.59;100.00
54648;BME280;40543;53.584;9.858;2023-04-09T00:37:33;54354.91;;;-144.59;100.00
54648;BME280;40543;53.584;9.858;2023-04-09T00:39:58;54389.25;;;-144.59;100.00
54648;BME280;40543;53.584;9.858;2023-04-09T00:42:24;54391.28;;;-144.59;100.00
54648;BME280;40543;53.584;9.858;2023-04-09T00:44:50;54385.22;;;-144.59;100.00
54648;BME280;40543;53.584;9.858;2023-04-09T00:47:15;54352.88;;;-144.59;100.00
54648;BME280;40543;53.584;9.858;2023-04-09T00:49:41;54417.56;;;-144.59;100.00
54648;BME280;40543;53.584;9.858;2023-04-09T00:52:06;54365.00;;;-144.59;100.00
54648;BME280;40543;53.584;9.858;2023-04-09T00:54:32;54340.75;;;-144.59;100.00
54648;BME280;40543;53.584;9.858;2023-04-09T00:56:58;54350.84;;;-144.59;100.00
54648;BME280;40543;53.584;9.858;2023-04-09T00:59:24;54395.34;;;-144.59;100.00
54648;BME280;40543;53.584;9.858;2023-04-09T01:01:50;54385.22;;;-144.59;100.00
54648;BME280;40543;53.584;9.858;2023-04-09T01:04:15;54421.59;;;-144.59;100.00
54648;BME280;40543;53.584;9.858;2023-04-09T01:06:51;54371.06;;;-144.59;100.00
54648;BME280;40543;53.584;9.858;2023-04-09T01:09:26;54362.97;;;-144.59;100.00
54648;BME280;40543;53.584;9.858;2023-04-09T01:14:28;54397.34;;;-144.59;100.00
54648;BME280;40543;53.584;9.858;2023-04-09T01:17:00;54383.19;;;-144.59;100.00
54648;BME280;40543;53.584;9.858;2023-04-09T01:25:01;54381.19;;;-144.59;100.00
54648;BME280;40543;53.584;9.858;2023-04-09T01:27:36;54375.13;;;-144.59;100.00
54648;BME280;40543;53.584;9.858;2023-04-09T01:30:04;54409.47;;;-144.59;100.00
54648;BME280;40543;53.584;9.858;2023-04-09T01:32:30;54369.03;;;-144.59;100.00
54648;BME280;40543;53.584;9.858;2023-04-09T01:35:00;54338.72;;;-144.59;100.00
54648;BME280;40543;53.584;9.858;2023-04-09T01:37:26;54391.28;;;-144.59;100.00
54648;BME280;40543;53.584;9.858;2023-04-09T01:39:52;54362.97;;;-144.59;100.00
54648;BME280;40543;53.584;9.858;2023-04-09T01:42:18;54379.16;;;-144.59;100.00
54648;BME280;40543;53.584;9.858;2023-04-09T01:44:44;54437.78;;;-144.59;100.00
54648;BME280;40543;53.584;9.858;2023-04-09T01:47:11;54381.19;;;-144.59;100.00
54648;BME280;40543;53.584;9.858;2023-04-09T01:49:37;54334.69;;;-144.59;100.00
54648;BME280;40543;53.584;9.858;2023-04-09T01:52:04;54385.22;;;-144.59;100.00
54648;BME280;40543;53.584;9.858;2023-04-09T01:54:29;54367.03;;;-144.59;100.00
54648;BME280;40543;53.584;9.858;2023-04-09T01:56:56;54403.41;;;-144.59;100.00
54648;BME280;40543;53.584;9.858;2023-04-09T01:59:21;54358.94;;;-144.59;100.00
54648;BME280;40543;53.584;9.858;2023-04-09T02:01:52;54350.84;;;-144.59;100.00
54648;BME280;40543;53.584;9.858;2023-04-09T02:04:22;54360.97;;;-144.59;100.00
54648;BME280;40543;53.584;9.858;2023-04-09T02:07:05;54431.72;;;-144.59;100.00
54648;BME280;40543;53.584;9.858;2023-04-09T02:09:36;54328.63;;;-144.59;100.00
54648;BME280;40543;53.584;9.858;2023-04-09T02:12:05;54367.03;;;-144.59;100.00
54648;BME280;40543;53.584;9.858;2023-04-09T02:14:32;54419.59;;;-144.59;100.00
54648;BME280;40543;53.584;9.858;2023-04-09T02:16:58;54346.81;;;-144.59;100.00
54648;BME280;40543;53.584;9.858;2023-04-09T02:19:24;54399.38;;;-144.59;100.00
54648;BME280;40543;53.584;9.858;2023-04-09T02:21:50;54409.47;;;-144.59;100.00
54648;BME280;40543;53.584;9.858;2023-04-09T02:24:15;54358.94;;;-144.59;100.00
54648;BME280;40543;53.584;9.858;2023-04-09T02:26:40;54334.69;;;-144.59;100.00
54648;BME280;40543;53.584;9.858;2023-04-09T02:29:06;54381.19;;;-144.59;100.00
54648;BME280;40543;53.584;9.858;2023-04-09T02:31:31;54373.09;;;-144.59;100.00
54648;BME280;40543;53.584;9.858;2023-04-09T02:33:56;54389.25;;;-144.59;100.00
54648;BME280;40543;53.584;9.858;2023-04-09T02:36:22;54397.34;;;-144.59;100.00
54648;BME280;40543;53.584;9.858;2023-04-09T02:38:47;54354.91;;;-144.59;100.00
54648;BME280;40543;53.584;9.858;2023-04-09T02:41:12;54417.56;;;-144.59;100.00
54648;BME280;40543;53.584;9.858;2023-04-09T02:43:38;54367.03;;;-144.59;100.00
54648;BME280;40543;53.584;9.858;2023-04-09T02:46:03;54385.22;;;-144.59;100.00
54648;BME280;40543;53.584;9.858;2023-04-09T02:48:28;54395.34;;;-144.59;100.00
54648;BME280;40543;53.584;9.858;2023-04-09T02:50:54;54348.84;;;-144.59;100.00
54648;BME280;40543;53.584;9.858;2023-04-09T02:53:19;54397.34;;;-144.59;100.00
54648;BME280;40543;53.584;9.858;2023-04-09T02:55:46;54367.03;;;-144.59;100.00
54648;BME280;40543;53.584;9.858;2023-04-09T02:58:11;54397.34;;;-144.59;100.00
54648;BME280;40543;53.584;9.858;2023-04-09T03:00:36;54411.50;;;-144.59;100.00
54648;BME280;40543;53.584;9.858;2023-04-09T03:03:02;54350.84;;;-144.59;100.00
54648;BME280;40543;53.584;9.858;2023-04-09T03:05:27;54405.44;;;-144.59;100.00
54648;BME280;40543;53.584;9.858;2023-04-09T03:07:53;54375.13;;;-144.59;100.00
54648;BME280;40543;53.584;9.858;2023-04-09T03:10:18;54411.50;;;-144.59;100.00
54648;BME280;40543;53.584;9.858;2023-04-09T03:12:43;54413.53;;;-144.59;100.00
54648;BME280;40543;53.584;9.858;2023-04-09T03:15:10;54419.59;;;-144.59;100.00
54648;BME280;40543;53.584;9.858;2023-04-09T03:17:35;54409.47;;;-144.59;100.00
54648;BME280;40543;53.584;9.858;2023-04-09T03:20:00;54369.03;;;-144.59;100.00
54648;BME280;40543;53.584;9.858;2023-04-09T03:22:26;54419.59;;;-144.59;100.00
54648;BME280;40543;53.584;9.858;2023-04-09T03:24:51;54362.97;;;-144.59;100.00
54648;BME280;40543;53.584;9.858;2023-04-09T03:27:17;54369.03;;;-144.59;100.00
54648;BME280;40543;53.584;9.858;2023-04-09T03:29:42;54393.31;;;-144.59;100.00
54648;BME280;40543;53.584;9.858;2023-04-09T03:32:07;54407.47;;;-144.59;100.00
54648;BME280;40543;53.584;9.858;2023-04-09T03:34:33;54342.78;;;-144.59;100.00
54648;BME280;40543;53.584;9.858;2023-04-09T03:36:58;54385.22;;;-144.59;100.00
54648;BME280;40543;53.584;9.858;2023-04-09T03:39:23;54391.28;;;-144.59;100.00
54648;BME280;40543;53.584;9.858;2023-04-09T03:41:49;54401.41;;;-144.59;100.00
54648;BME280;40543;53.584;9.858;2023-04-09T03:44:14;54403.41;;;-144.59;100.00
54648;BME280;40543;53.584;9.858;2023-04-09T03:46:40;54407.47;;;-144.59;100.00
54648;BME280;40543;53.584;9.858;2023-04-09T03:49:05;54407.47;;;-144.59;100.00
54648;BME280;40543;53.584;9.858;2023-04-09T03:51:30;54375.13;;;-144.59;100.00
54648;BME280;40543;53.584;9.858;2023-04-09T03:53:56;54385.22;;;-144.59;100.00
54648;BME280;40543;53.584;9.858;2023-04-09T03:56:21;54445.88;;;-144.59;100.00
54648;BME280;40543;53.584;9.858;2023-04-09T03:58:47;54407.47;;;-144.59;100.00
54648;BME280;40543;53.584;9.858;2023-04-09T04:01:13;54399.38;;;-144.59;100.00
54648;BME280;40543;53.584;9.858;2023-04-09T04:03:39;54383.19;;;-144.59;100.00
54648;BME280;40543;53.584;9.858;2023-04-09T04:06:04;54389.25;;;-144.59;100.00
54648;BME280;40543;53.584;9.858;2023-04-09T04:08:30;54377.13;;;-144.59;100.00
54648;BME280;40543;53.584;9.858;2023-04-09T04:10:55;54383.19;;;-144.59;100.00
54648;BME280;40543;53.584;9.858;2023-04-09T04:13:21;54371.06;;;-144.59;100.00
54648;BME280;40543;53.584;9.858;2023-04-09T04:15:46;54385.22;;;-144.59;100.00
54648;BME280;40543;53.584;9.858;2023-04-09T04:18:11;54367.03;;;-144.59;100.00
54648;BME280;40543;53.584;9.858;2023-04-09T04:20:37;54389.25;;;-144.59;100.00
54648;BME280;40543;53.584;9.858;2023-04-09T04:23:03;54403.41;;;-144.59;100.00
54648;BME280;40543;53.584;9.858;2023-04-09T04:25:29;54425.66;;;-144.59;100.00
54648;BME280;40543;53.584;9.858;2023-04-09T04:27:55;54411.50;;;-144.59;100.00
54648;BME280;40543;53.584;9.858;2023-04-09T04:30:21;54383.19;;;-144.59;100.00
54648;BME280;40543;53.584;9.858;2023-04-09T04:32:49;54367.03;;;-144.59;100.00
54648;BME280;40543;53.584;9.858;2023-04-09T04:35:15;54403.41;;;-144.59;100.00
54648;BME280;40543;53.584;9.858;2023-04-09T04:37:40;54458.00;;;-144.59;100.00
54648;BME280;40543;53.584;9.858;2023-04-09T04:40:07;54409.47;;;-144.59;100.00
54648;BME280;40543;53.584;9.858;2023-04-09T04:42:33;54437.78;;;-144.59;100.00
54648;BME280;40543;53.584;9.858;2023-04-09T04:44:58;54417.56;;;-144.59;100.00
54648;BME280;40543;53.584;9.858;2023-04-09T04:47:24;54389.25;;;-144.59;100.00
54648;BME280;40543;53.584;9.858;2023-04-09T04:49:49;54431.72;;;-144.59;100.00
54648;BME280;40543;53.584;9.858;2023-04-09T04:52:14;54443.84;;;-144.59;100.00
54648;BME280;40543;53.584;9.858;2023-04-09T04:54:40;54395.34;;;-144.59;100.00
54648;BME280;40543;53.584;9.858;2023-04-09T04:57:05;54395.34;;;-144.59;100.00
54648;BME280;40543;53.584;9.858;2023-04-09T04:59:30;54385.22;;;-144.59;100.00
54648;BME280;40543;53.584;9.858;2023-04-09T05:01:56;54358.94;;;-144.59;100.00
54648;BME280;40543;53.584;9.858;2023-04-09T05:04:21;54399.38;;;-144.59;100.00
54648;BME280;40543;53.584;9.858;2023-04-09T05:06:47;54413.53;;;-144.59;100.00
54648;BME280;40543;53.584;9.858;2023-04-09T05:09:12;54375.13;;;-144.59;100.00
54648;BME280;40543;53.584;9.858;2023-04-09T05:11:37;54423.63;;;-144.59;100.00
54648;BME280;40543;53.584;9.858;2023-04-09T05:14:03;54415.53;;;-144.59;100.00
54648;BME280;40543;53.584;9.858;2023-04-09T05:16:30;54411.50;;;-144.59;100.00
54648;BME280;40543;53.584;9.858;2023-04-09T05:18:55;54403.41;;;-144.59;100.00
54648;BME280;40543;53.584;9.858;2023-04-09T05:21:21;54405.44;;;-144.59;100.00
54648;BME280;40543;53.584;9.858;2023-04-09T05:23:46;54381.19;;;-144.59;100.00
54648;BME280;40543;53.584;9.858;2023-04-09T05:26:11;54403.41;;;-144.59;100.00
54648;BME280;40543;53.584;9.858;2023-04-09T05:28:37;54403.41;;;-144.59;100.00
54648;BME280;40543;53.584;9.858;2023-04-09T05:31:02;54417.56;;;-144.59;100.00
54648;BME280;40543;53.584;9.858;2023-04-09T05:33:28;54405.44;;;-144.59;100.00
54648;BME280;40543;53.584;9.858;2023-04-09T05:35:53;54397.34;;;-144.59;100.00
54648;BME280;40543;53.584;9.858;2023-04-09T05:38:18;54419.59;;;-144.59;100.00
54648;BME280;40543;53.584;9.858;2023-04-09T05:40:44;54411.50;;;-144.59;100.00
54648;BME280;40543;53.584;9.858;2023-04-09T05:43:10;54391.28;;;-144.59;100.00
54648;BME280;40543;53.584;9.858;2023-04-09T05:45:35;54383.19;;;-144.59;100.00
54648;BME280;40543;53.584;9.858;2023-04-09T05:48:01;54409.47;;;-144.59;100.00
54648;BME280;40543;53.584;9.858;2023-04-09T05:50:26;54387.25;;;-144.59;100.00
54648;BME280;40543;53.584;9.858;2023-04-09T05:52:52;54423.63;;;-144.59;100.00
54648;BME280;40543;53.584;9.858;2023-04-09T05:55:17;54423.63;;;-144.59;100.00
54648;BME280;40543;53.584;9.858;2023-04-09T05:57:42;54399.38;;;-144.59;100.00
54648;BME280;40543;53.584;9.858;2023-04-09T06:00:10;54367.03;;;-144.59;100.00
54648;BME280;40543;53.584;9.858;2023-04-09T06:02:35;54405.44;;;-144.59;100.00
54648;BME280;40543;53.584;9.858;2023-04-09T06:05:00;54451.94;;;-144.59;100.00
54648;BME280;40543;53.584;9.858;2023-04-09T06:07:26;54387.25;;;-144.59;100.00
54648;BME280;40543;53.584;9.858;2023-04-09T06:09:51;54397.34;;;-144.59;100.00
54648;BME280;40543;53.584;9.858;2023-04-09T06:12:16;54377.13;;;-144.59;100.00
54648;BME280;40543;53.584;9.858;2023-04-09T06:14:42;54419.59;;;-144.59;100.00
54648;BME280;40543;53.584;9.858;2023-04-09T06:17:07;54417.56;;;-144.59;100.00
54648;BME280;40543;53.584;9.858;2023-04-09T06:19:32;54383.19;;;-144.59;100.00
54648;BME280;40543;53.584;9.858;2023-04-09T06:21:58;54403.41;;;-144.59;100.00
54648;BME280;40543;53.584;9.858;2023-04-09T06:24:23;54421.59;;;-144.59;100.00
54648;BME280;40543;53.584;9.858;2023-04-09T06:26:48;54453.97;;;-144.59;100.00
54648;BME280;40543;53.584;9.858;2023-04-09T06:29:14;54405.44;;;-144.59;100.00
54648;BME280;40543;53.584;9.858;2023-04-09T06:31:39;54435.75;;;-144.59;100.00
54648;BME280;40543;53.584;9.858;2023-04-09T06:34:06;54393.31;;;-144.59;100.00
54648;BME280;40543;53.584;9.858;2023-04-09T06:36:32;54405.44;;;-144.59;100.00
54648;BME280;40543;53.584;9.858;2023-04-09T06:38:57;54391.28;;;-144.59;100.00
54648;BME280;40543;53.584;9.858;2023-04-09T06:41:23;54421.59;;;-144.59;100.00
54648;BME280;40543;53.584;9.858;2023-04-09T06:43:49;54383.19;;;-144.59;100.00
54648;BME280;40543;53.584;9.858;2023-04-09T06:46:14;54411.50;;;-144.59;100.00
54648;BME280;40543;53.584;9.858;2023-04-09T06:48:41;54393.31;;;-144.59;100.00
54648;BME280;40543;53.584;9.858;2023-04-09T06:51:09;54393.31;;;-144.59;100.00
54648;BME280;40543;53.584;9.858;2023-04-09T06:53:34;54405.44;;;-144.59;100.00
54648;BME280;40543;53.584;9.858;2023-04-09T06:56:00;54391.28;;;-144.59;100.00
54648;BME280;40543;53.584;9.858;2023-04-09T06:58:26;54358.94;;;-144.59;100.00
54648;BME280;40543;53.584;9.858;2023-04-09T07:00:51;54413.53;;;-144.59;100.00
54648;BME280;40543;53.584;9.858;2023-04-09T07:03:16;54391.28;;;-144.59;100.00
54648;BME280;40543;53.584;9.858;2023-04-09T07:05:42;54393.31;;;-144.59;100.00
54648;BME280;40543;53.584;9.858;2023-04-09T07:08:07;54411.50;;;-144.59;100.00
54648;BME280;40543;53.584;9.858;2023-04-09T07:10:32;54435.75;;;-144.59;100.00
54648;BME280;40543;53.584;9.858;2023-04-09T07:12:58;54411.50;;;-144.59;100.00
54648;BME280;40543;53.584;9.858;2023-04-09T07:15:23;54415.53;;;-144.59;100.00
54648;BME280;40543;53.584;9.858;2023-04-09T07:17:48;54389.25;;;-144.59;100.00
54648;BME280;40543;53.584;9.858;2023-04-09T07:20:14;54348.84;;;-144.59;100.00
54648;BME280;40543;53.584;9.858;2023-04-09T07:22:39;54369.03;;;-144.59;100.00
54648;BME280;40543;53.584;9.858;2023-04-09T07:25:06;54429.69;;;-144.59;100.00
54648;BME280;40543;53.584;9.858;2023-04-09T07:27:31;54447.88;;;-144.59;100.00
54648;BME280;40543;53.584;9.858;2023-04-09T07:29:58;54362.97;;;-144.59;100.00
54648;BME280;40543;53.584;9.858;2023-04-09T07:32:25;54397.34;;;-144.59;100.00
54648;BME280;40543;53.584;9.858;2023-04-09T07:34:52;54427.69;;;-144.59;100.00
54648;BME280;40543;53.584;9.858;2023-04-09T07:37:18;54395.34;;;-144.59;100.00
54648;BME280;40543;53.584;9.858;2023-04-09T07:39:43;54391.28;;;-144.59;100.00
54648;BME280;40543;53.584;9.858;2023-04-09T07:42:09;54407.47;;;-144.59;100.00
54648;BME280;40543;53.584;9.858;2023-04-09T07:44:35;54375.13;;;-144.59;100.00
54648;BME280;40543;53.584;9.858;2023-04-09T07:47:01;54395.34;;;-144.59;100.00
54648;BME280;40543;53.584;9.858;2023-04-09T07:49:26;54397.34;;;-144.59;100.00
54648;BME280;40543;53.584;9.858;2023-04-09T07:51:52;54399.38;;;-144.59;100.00
54648;BME280;40543;53.584;9.858;2023-04-09T07:54:17;54407.47;;;-144.59;100.00
54648;BME280;40543;53.584;9.858;2023-04-09T07:56:45;54362.97;;;-144.59;100.00
54648;BME280;40543;53.584;9.858;2023-04-09T07:59:10;54326.59;;;-144.59;100.00
54648;BME280;40543;53.584;9.858;2023-04-09T08:01:36;54340.75;;;-144.59;100.00
54648;BME280;40543;53.584;9.858;2023-04-09T08:04:01;54350.84;;;-144.59;100.00
54648;BME280;40543;53.584;9.858;2023-04-09T08:06:26;54362.97;;;-144.59;100.00
54648;BME280;40543;53.584;9.858;2023-04-09T08:08:52;54350.84;;;-144.59;100.00
54648;BME280;40543;53.584;9.858;2023-04-09T08:11:17;54294.25;;;-144.59;100.00
54648;BME280;40543;53.584;9.858;2023-04-09T08:13:52;54334.69;;;-144.59;100.00
54648;BME280;40543;53.584;9.858;2023-04-09T08:16:17;54342.78;;;-144.59;100.00
54648;BME280;40543;53.584;9.858;2023-04-09T08:18:43;54354.91;;;-144.59;100.00
54648;BME280;40543;53.584;9.858;2023-04-09T08:21:08;54336.69;;;-144.59;100.00
54648;BME280;40543;53.584;9.858;2023-04-09T08:23:34;54336.69;;;-144.59;100.00
54648;BME280;40543;53.584;9.858;2023-04-09T08:25:59;54318.50;;;-144.59;100.00
54648;BME280;40543;53.584;9.858;2023-04-09T08:28:24;54367.03;;;-144.59;100.00
54648;BME280;40543;53.584;9.858;2023-04-09T08:30:50;54340.75;;;-144.59;100.00
54648;BME280;40543;53.584;9.858;2023-04-09T08:33:16;54350.84;;;-144.59;100.00
54648;BME280;40543;53.584;9.858;2023-04-09T08:35:41;54306.38;;;-144.59;100.00
54648;BME280;40543;53.584;9.858;2023-04-09T08:38:07;54352.88;;;-144.59;100.00
54648;BME280;40543;53.584;9.858;2023-04-09T08:40:36;54375.13;;;-144.59;100.00
54648;BME280;40543;53.584;9.858;2023-04-09T08:43:04;54318.50;;;-144.59;100.00
54648;BME280;40543;53.584;9.858;2023-04-09T08:45:31;54330.63;;;-144.59;100.00
54648;BME280;40543;53.584;9.858;2023-04-09T08:47:56;54340.75;;;-144.59;100.00
54648;BME280;40543;53.584;9.858;2023-04-09T08:50:24;54330.63;;;-144.59;100.00
54648;BME280;40543;53.584;9.858;2023-04-09T08:52:50;54318.50;;;-144.59;100.00
54648;BME280;40543;53.584;9.858;2023-04-09T08:55:15;54350.84;;;-144.59;100.00
54648;BME280;40543;53.584;9.858;2023-04-09T08:57:41;54286.16;;;-144.59;100.00
54648;BME280;40543;53.584;9.858;2023-04-09T09:00:07;54290.22;;;-144.59;100.00
54648;BME280;40543;53.584;9.858;2023-04-09T09:02:33;54316.50;;;-144.59;100.00
54648;BME280;40543;53.584;9.858;2023-04-09T09:04:59;54265.94;;;-144.59;100.00
54648;BME280;40543;53.584;9.858;2023-04-09T09:07:27;54263.94;;;-144.59;100.00
54648;BME280;40543;53.584;9.858;2023-04-09T09:10:02;54346.81;;;-144.59;100.00
54648;BME280;40543;53.584;9.858;2023-04-09T09:12:39;54302.34;;;-144.59;100.00
54648;BME280;40543;53.584;9.858;2023-04-09T09:15:24;54274.03;;;-144.59;100.00
54648;BME280;40543;53.584;9.858;2023-04-09T09:17:55;54336.69;;;-144.59;100.00
54648;BME280;40543;53.584;9.858;2023-04-09T09:20:21;54302.34;;;-144.59;100.00
54648;BME280;40543;53.584;9.858;2023-04-09T09:22:51;54310.41;;;-144.59;100.00
54648;BME280;40543;53.584;9.858;2023-04-09T09:25:16;54318.50;;;-144.59;100.00
54648;BME280;40543;53.584;9.858;2023-04-09T09:27:42;54340.75;;;-144.59;100.00
54648;BME280;40543;53.584;9.858;2023-04-09T09:30:08;54294.25;;;-144.59;100.00
54648;BME280;40543;53.584;9.858;2023-04-09T09:32:35;54286.16;;;-144.59;100.00
54648;BME280;40543;53.584;9.858;2023-04-09T09:35:05;54298.28;;;-144.59;100.00
54648;BME280;40543;53.584;9.858;2023-04-09T09:37:31;54265.94;;;-144.59;100.00
54648;BME280;40543;53.584;9.858;2023-04-09T09:39:57;54265.94;;;-144.59;100.00
54648;BME280;40543;53.584;9.858;2023-04-09T09:42:23;54338.72;;;-144.59;100.00
54648;BME280;40543;53.584;9.858;2023-04-09T09:44:49;54306.38;;;-144.59;100.00
54648;BME280;40543;53.584;9.858;2023-04-09T09:47:16;54332.66;;;-144.59;100.00
54648;BME280;40543;53.584;9.858;2023-04-09T09:49:42;54278.06;;;-144.59;100.00
54648;BME280;40543;53.584;9.858;2023-04-09T09:52:09;54316.50;;;-144.59;100.00
54648;BME280;40543;53.584;9.858;2023-04-09T09:54:40;54326.59;;;-144.59;100.00
54648;BME280;40543;53.584;9.858;2023-04-09T09:57:09;54280.09;;;-144.59;100.00
54648;BME280;40543;53.584;9.858;2023-04-09T09:59:50;54318.50;;;-144.59;100.00
54648;BME280;40543;53.584;9.858;2023-04-09T10:02:19;54274.03;;;-144.59;100.00
54648;BME280;40543;53.584;9.858;2023-04-09T10:04:46;54298.28;;;-144.59;100.00
54648;BME280;40543;53.584;9.858;2023-04-09T10:07:13;54314.47;;;-144.59;100.00
54648;BME280;40543;53.584;9.858;2023-04-09T10:09:41;54272.00;;;-144.59;100.00
54648;BME280;40543;53.584;9.858;2023-04-09T10:12:08;54259.88;;;-144.59;100.00
54648;BME280;40543;53.584;9.858;2023-04-09T10:14:34;54215.41;;;-144.59;100.00
54648;BME280;40543;53.584;9.858;2023-04-09T10:17:01;54278.06;;;-144.59;100.00
54648;BME280;40543;53.584;9.858;2023-04-09T10:19:28;54249.78;;;-144.59;100.00
54648;BME280;40543;53.584;9.858;2023-04-09T10:22:17;54276.06;;;-144.59;100.00
54648;BME280;40543;53.584;9.858;2023-04-09T10:24:45;54237.66;;;-144.59;100.00
54648;BME280;40543;53.584;9.858;2023-04-09T10:27:15;54245.72;;;-144.59;100.00
54648;BME280;40543;53.584;9.858;2023-04-09T10:29:47;54207.31;;;-144.59;100.00
54648;BME280;40543;53.584;9.858;2023-04-09T10:32:20;54187.09;;;-144.59;100.00
54648;BME280;40543;53.584;9.858;2023-04-09T10:34:46;54114.34;;;-144.59;97.45
54648;BME280;40543;53.584;9.858;2023-04-09T10:37:15;54088.06;;;-144.59;89.15
54648;BME280;40543;53.584;9.858;2023-04-09T10:39:45;54067.84;;;-144.59;86.36
54648;BME280;40543;53.584;9.858;2023-04-09T10:42:20;54073.91;;;-144.59;86.84
54648;BME280;40543;53.584;9.858;2023-04-09T10:45:10;53950.59;;;-144.59;81.98
54648;BME280;40543;53.584;9.858;2023-04-09T10:47:37;53873.78;;;-144.59;76.26
54648;BME280;40543;53.584;9.858;2023-04-09T10:50:19;54001.13;;;-144.59;67.78
54648;BME280;40543;53.584;9.858;2023-04-09T10:52:46;54059.75;;;-144.59;67.24
54648;BME280;40543;53.584;9.858;2023-04-09T10:57:59;54108.28;;;-144.59;78.18
54648;BME280;40543;53.584;9.858;2023-04-09T11:00:25;54059.75;;;-144.59;77.47
54648;BME280;40543;53.584;9.858;2023-04-09T11:03:12;53924.31;;;-144.59;73.13
54648;BME280;40543;53.584;9.858;2023-04-09T11:05:46;54035.50;;;-144.59;72.32
54648;BME280;40543;53.584;9.858;2023-04-09T11:08:15;54073.91;;;-144.59;73.57
54648;BME280;40543;53.584;9.858;2023-04-09T11:10:43;54037.53;;;-144.59;75.10
54648;BME280;40543;53.584;9.858;2023-04-09T11:13:17;54025.41;;;-144.59;73.42
54648;BME280;40543;53.584;9.858;2023-04-09T11:15:44;53926.34;;;-144.59;70.75
54648;BME280;40543;53.584;9.858;2023-04-09T11:18:14;53982.94;;;-144.59;67.13
54648;BME280;40543;53.584;9.858;2023-04-09T11:20:39;54065.81;;;-144.59;69.12
54648;BME280;40543;53.584;9.858;2023-04-09T11:23:05;54017.31;;;-144.59;71.61
54648;BME280;40543;53.584;9.858;2023-04-09T11:25:31;53982.94;;;-144.59;70.75
54648;BME280;40543;53.584;9.858;2023-04-09T11:27:58;53978.91;;;-144.59;65.77
54648;BME280;40543;53.584;9.858;2023-04-09T11:30:24;53873.78;;;-144.59;67.11
54648;BME280;40543;53.584;9.858;2023-04-09T11:32:49;53726.25;;;-144.59;61.35
54648;BME280;40543;53.584;9.858;2023-04-09T11:35:17;53752.50;;;-144.59;43.66
54648;BME280;40543;53.584;9.858;2023-04-09T11:37:44;53760.59;;;-144.59;46.57
54648;BME280;40543;53.584;9.858;2023-04-09T11:40:20;53859.63;;;-144.59;47.00
54648;BME280;40543;53.584;9.858;2023-04-09T11:42:48;53805.06;;;-144.59;45.44
54648;BME280;40543;53.584;9.858;2023-04-09T11:45:15;53776.78;;;-144.59;46.36
54648;BME280;40543;53.584;9.858;2023-04-09T11:47:42;53938.47;;;-144.59;46.60
54648;BME280;40543;53.584;9.858;2023-04-09T11:50:08;54065.81;;;-144.59;59.06
54648;BME280;40543;53.584;9.858;2023-04-09T11:52:35;53764.63;;;-144.59;50.85
54648;BME280;40543;53.584;9.858;2023-04-09T11:55:01;53736.34;;;-144.59;40.65
54648;BME280;40543;53.584;9.858;2023-04-09T11:57:42;53724.22;;;-144.59;39.68
54648;BME280;40543;53.584;9.858;2023-04-09T12:00:12;54082.00;;;-144.59;45.19
54648;BME280;40543;53.584;9.858;2023-04-09T12:02:48;53962.72;;;-144.59;53.43
54648;BME280;40543;53.584;9.858;2023-04-09T12:05:24;53718.16;;;-144.59;41.86
54648;BME280;40543;53.584;9.858;2023-04-09T12:07:51;53740.38;;;-144.59;41.08
54648;BME280;40543;53.584;9.858;2023-04-09T12:10:17;53938.47;;;-144.59;41.15
54648;BME280;40543;53.584;9.858;2023-04-09T12:12:44;54063.81;;;-144.59;60.42
54648;BME280;40543;53.584;9.858;2023-04-09T12:15:11;53950.59;;;-144.59;64.43
54648;BME280;40543;53.584;9.858;2023-04-09T12:17:42;53829.31;;;-144.59;50.26
54648;BME280;40543;53.584;9.858;2023-04-09T12:20:07;53679.75;;;-144.59;48.77
54648;BME280;40543;53.584;9.858;2023-04-09T12:22:33;53697.94;;;-144.59;42.71
54648;BME280;40543;53.584;9.858;2023-04-09T12:25:01;53699.97;;;-144.59;42.85
54648;BME280;40543;53.584;9.858;2023-04-09T12:27:26;53750.50;;;-144.59;46.90
54648;BME280;40543;53.584;9.858;2023-04-09T12:29:52;54003.16;;;-144.59;46.49
54648;BME280;40543;53.584;9.858;2023-04-09T12:32:17;53683.78;;;-144.59;44.85
54648;BME280;40543;53.584;9.858;2023-04-09T12:34:43;53655.50;;;-144.59;39.39
54648;BME280;40543;53.584;9.858;2023-04-09T12:37:08;53627.19;;;-144.59;39.64
54648;BME280;40543;53.584;9.858;2023-04-09T12:39:34;53598.91;;;-144.59;37.18